Fond-Du-Lac, Canada
Current Conditions -  °F | °C
As of 12:00 PM on Thursday 30 Oct 2014 (Local Time) from CYSF Reporting Station
Clear Clear  
Wind Chill: 23°   Ceiling: Unl
Heat Index: 23°   Visibility: 9mi
Dew Point: 23°   Wind: 3mph
Humidity: 100%   Direction: 100°E
Pressure: 30.4"   Gusts: NA
Location:  59.32°N, 107.18°W
Report Text: CYSF 301800Z AUTO 10003KT 070V130 9SM CLR M05/M05 A3040 RMK SLP318
Loading
Personal Weather Stations






























Interactive Weather Map
Tropical Storm Tracking
New forecast layout! Learn more

10-Day Weather Forecast

Advertisements
Track Severe Weather on mobile